createdAt,value
2023-04-20T00:00:18.394Z,9.32
2023-04-20T00:01:14.419Z,9.36
2023-04-20T00:02:10.033Z,9.37
2023-04-20T00:03:05.803Z,9.41
2023-04-20T00:04:01.191Z,9.41
2023-04-20T00:04:56.673Z,9.34
2023-04-20T00:05:52.240Z,9.33
2023-04-20T00:06:48.218Z,9.42
2023-04-20T00:07:43.791Z,9.41
2023-04-20T00:08:39.826Z,9.33
2023-04-20T00:09:35.885Z,9.37
2023-04-20T00:10:31.407Z,9.37
2023-04-20T00:11:26.980Z,9.40
2023-04-20T00:12:22.542Z,9.40
2023-04-20T00:13:18.106Z,9.33
2023-04-20T00:14:13.672Z,9.34
2023-04-20T00:15:09.243Z,9.33
2023-04-20T00:16:04.792Z,9.42
2023-04-20T00:17:00.476Z,9.41
2023-04-20T00:17:56.457Z,9.37
2023-04-20T00:18:52.443Z,9.44
2023-04-20T00:19:48.467Z,9.40
2023-04-20T00:20:44.034Z,9.40
2023-04-20T00:21:40.060Z,9.48
2023-04-20T00:22:35.597Z,9.50
2023-04-20T00:23:42.904Z,9.51
2023-04-20T00:24:38.445Z,9.51
2023-04-20T00:25:34.012Z,9.51
2023-04-20T00:26:30.031Z,9.50
2023-04-20T00:27:26.064Z,9.48
2023-04-20T00:28:21.622Z,9.45
2023-04-20T00:29:17.388Z,9.51
2023-04-20T00:30:13.260Z,9.44
2023-04-20T00:31:09.345Z,9.47
2023-04-20T00:32:04.863Z,9.48
2023-04-20T00:33:00.906Z,9.48
2023-04-20T00:33:57.918Z,9.48
2023-04-20T00:34:54.007Z,9.54
2023-04-20T00:35:50.067Z,9.55
2023-04-20T00:36:46.112Z,9.54
2023-04-20T00:37:41.664Z,9.51
2023-04-20T00:38:37.707Z,9.36
2023-04-20T00:39:33.821Z,9.52
2023-04-20T00:40:29.866Z,9.44
2023-04-20T00:41:26.016Z,9.48
2023-04-20T00:42:21.932Z,9.50
2023-04-20T00:43:17.981Z,9.42
2023-04-20T00:44:14.031Z,9.40
2023-04-20T00:45:10.025Z,9.34
2023-04-20T00:46:06.135Z,9.36
2023-04-20T00:47:02.079Z,9.41
2023-04-20T00:47:58.118Z,9.41
2023-04-20T00:48:53.694Z,9.48
2023-04-20T00:49:49.240Z,9.54
2023-04-20T00:50:44.936Z,9.51
2023-04-20T00:51:40.373Z,9.51
2023-04-20T00:52:36.393Z,9.37
2023-04-20T00:53:31.936Z,9.41
2023-04-20T00:54:27.509Z,9.41
2023-04-20T00:55:23.063Z,9.42
2023-04-20T00:56:18.619Z,9.40
2023-04-20T00:57:14.191Z,9.52
2023-04-20T00:58:09.730Z,9.50
2023-04-20T00:59:05.459Z,9.51
2023-04-20T01:00:00.978Z,9.41
2023-04-20T01:00:56.552Z,9.42
2023-04-20T01:01:52.195Z,9.40
2023-04-20T01:02:47.780Z,9.48
2023-04-20T01:03:43.319Z,9.40
2023-04-20T01:04:38.852Z,9.40
2023-04-20T01:05:34.784Z,9.34
2023-04-20T01:06:30.305Z,9.36
2023-04-20T01:07:26.319Z,9.41
2023-04-20T01:08:22.353Z,9.36
2023-04-20T01:09:18.002Z,9.29
2023-04-20T01:10:13.468Z,9.29
2023-04-20T01:11:09.011Z,9.19
2023-04-20T01:12:15.864Z,9.29
2023-04-20T01:13:11.385Z,9.27
2023-04-20T01:14:06.953Z,9.29
2023-04-20T01:15:02.989Z,9.26
2023-04-20T01:15:58.576Z,9.26
2023-04-20T01:16:54.138Z,9.26
2023-04-20T01:17:49.733Z,9.32
2023-04-20T01:18:45.243Z,9.29
2023-04-20T01:19:41.262Z,9.32
2023-04-20T01:20:36.812Z,9.29
2023-04-20T01:21:32.402Z,9.27
2023-04-20T01:22:27.951Z,9.30
2023-04-20T01:23:23.968Z,9.29
2023-04-20T01:24:19.511Z,9.18
2023-04-20T01:25:15.065Z,9.30
2023-04-20T01:26:10.628Z,9.19
2023-04-20T01:27:06.176Z,9.24
2023-04-20T01:28:01.750Z,9.15
2023-04-20T01:28:57.279Z,9.24
2023-04-20T01:29:53.833Z,9.22
2023-04-20T01:30:50.396Z,9.16
2023-04-20T01:31:45.944Z,9.09
2023-04-20T01:32:42.579Z,9.12
2023-04-20T01:33:38.570Z,9.12
2023-04-20T01:34:34.664Z,9.06
2023-04-20T01:35:30.228Z,9.14
2023-04-20T01:36:26.258Z,9.04
2023-04-20T01:37:22.326Z,9.11
2023-04-20T01:38:18.354Z,9.12
2023-04-20T01:39:13.983Z,9.06
2023-04-20T01:40:09.923Z,9.04
2023-04-20T01:41:05.977Z,9.11
2023-04-20T01:42:02.019Z,9.09
2023-04-20T01:42:58.621Z,9.12
2023-04-20T01:43:54.221Z,9.06
2023-04-20T01:44:51.239Z,9.09
2023-04-20T01:45:46.815Z,9.14
2023-04-20T01:46:42.915Z,9.14
2023-04-20T01:47:39.492Z,9.08
2023-04-20T01:48:35.473Z,9.11
2023-04-20T01:49:31.049Z,9.18
2023-04-20T01:50:26.598Z,9.18
2023-04-20T01:51:22.156Z,9.12
2023-04-20T01:52:17.781Z,9.16
2023-04-20T01:53:13.827Z,9.16
2023-04-20T01:54:09.377Z,9.06
2023-04-20T01:55:05.424Z,9.11
2023-04-20T01:56:01.444Z,9.12
2023-04-20T01:56:58.020Z,9.14
2023-04-20T01:57:53.578Z,9.15
2023-04-20T01:58:49.114Z,9.15
2023-04-20T01:59:44.915Z,9.11
2023-04-20T02:00:40.758Z,9.09
2023-04-20T02:01:36.758Z,9.06
2023-04-20T02:02:32.893Z,9.09
2023-04-20T02:03:29.003Z,9.04
2023-04-20T02:04:24.363Z,9.14
2023-04-20T02:05:20.394Z,9.08
2023-04-20T02:06:15.981Z,9.09
2023-04-20T02:07:11.545Z,9.09
2023-04-20T02:08:07.109Z,9.16
2023-04-20T02:09:02.661Z,9.11
2023-04-20T02:09:58.205Z,9.06
2023-04-20T02:10:54.245Z,9.06
2023-04-20T02:11:51.281Z,9.16
2023-04-20T02:12:47.307Z,9.12
2023-04-20T02:13:42.858Z,9.14
2023-04-20T02:14:38.408Z,9.09
2023-04-20T02:15:33.988Z,9.16
2023-04-20T02:16:29.537Z,9.15
2023-04-20T02:17:25.150Z,9.08
2023-04-20T02:18:20.645Z,9.12
2023-04-20T02:19:16.453Z,9.11
2023-04-20T02:20:11.753Z,9.04
2023-04-20T02:21:07.309Z,9.06
2023-04-20T02:22:02.855Z,9.06
2023-04-20T02:22:58.384Z,8.98
2023-04-20T02:23:53.946Z,9.04
2023-04-20T02:24:49.502Z,9.03
2023-04-20T02:25:45.063Z,9.14
2023-04-20T02:26:41.625Z,9.04
2023-04-20T02:27:37.215Z,8.98
2023-04-20T02:28:32.746Z,9.01
2023-04-20T02:29:28.295Z,9.12
2023-04-20T02:30:23.875Z,9.09
2023-04-20T02:31:19.938Z,9.11
2023-04-20T02:32:15.456Z,9.08
2023-04-20T02:33:11.492Z,9.12
2023-04-20T02:34:07.038Z,9.16
2023-04-20T02:35:02.614Z,9.03
2023-04-20T02:35:58.631Z,9.09
2023-04-20T02:36:54.200Z,9.08
2023-04-20T02:37:50.300Z,9.09
2023-04-20T02:38:45.896Z,9.11
2023-04-20T02:39:41.412Z,9.11
2023-04-20T02:40:37.452Z,9.08
2023-04-20T02:41:33.460Z,9.09
2023-04-20T02:42:29.011Z,9.11
2023-04-20T02:43:25.042Z,9.15
2023-04-20T02:44:20.612Z,9.08
2023-04-20T02:45:16.679Z,9.11
2023-04-20T02:46:12.749Z,9.09
2023-04-20T02:46:57.902Z,9.16
2023-04-20T02:47:53.951Z,9.06
2023-04-20T02:48:49.952Z,9.11
2023-04-20T02:49:57.244Z,9.11
2023-04-20T02:50:53.274Z,9.11
2023-04-20T02:51:49.307Z,9.09
2023-04-20T02:52:45.346Z,9.15
2023-04-20T02:53:40.922Z,9.09
2023-04-20T02:54:36.962Z,9.04
2023-04-20T02:55:32.992Z,9.06
2023-04-20T02:56:28.572Z,9.09
2023-04-20T02:57:24.130Z,9.14
2023-04-20T02:58:20.163Z,9.08
2023-04-20T02:59:15.894Z,9.08
2023-04-20T03:00:11.281Z,9.08
2023-04-20T03:01:06.831Z,8.99
2023-04-20T03:02:03.014Z,9.04
2023-04-20T03:02:59.022Z,9.04
2023-04-20T03:03:55.236Z,9.08
2023-04-20T03:04:51.081Z,9.03
2023-04-20T03:05:46.542Z,9.04
2023-04-20T03:06:42.562Z,9.12
2023-04-20T03:07:38.130Z,9.09
2023-04-20T03:08:33.685Z,9.08
2023-04-20T03:09:29.348Z,8.98
2023-04-20T03:10:24.910Z,8.95
2023-04-20T03:11:20.466Z,9.08
2023-04-20T03:12:16.016Z,8.99
2023-04-20T03:13:11.558Z,9.06
2023-04-20T03:14:07.121Z,8.99
2023-04-20T03:15:02.706Z,8.89
2023-04-20T03:15:58.269Z,8.99
2023-04-20T03:16:54.281Z,8.99
2023-04-20T03:17:50.386Z,9.06
2023-04-20T03:18:45.904Z,9.12
2023-04-20T03:19:41.919Z,9.08
2023-04-20T03:20:37.942Z,9.08
2023-04-20T03:21:33.503Z,8.96
2023-04-20T03:22:29.528Z,8.96
2023-04-20T03:23:25.548Z,8.99
2023-04-20T03:24:21.096Z,9.04
2023-04-20T03:25:16.662Z,8.98
2023-04-20T03:26:12.229Z,8.92
2023-04-20T03:27:08.780Z,9.01
2023-04-20T03:28:04.787Z,8.95
2023-04-20T03:29:00.803Z,8.98
2023-04-20T03:29:56.830Z,8.99
2023-04-20T03:30:52.408Z,9.04
2023-04-20T03:31:48.062Z,8.98
2023-04-20T03:32:43.607Z,9.08
2023-04-20T03:33:39.128Z,9.12
2023-04-20T03:34:34.674Z,9.09
2023-04-20T03:35:30.233Z,9.08
2023-04-20T03:36:26.251Z,9.09
2023-04-20T03:37:21.842Z,9.08
2023-04-20T03:38:17.411Z,9.11
2023-04-20T03:39:12.964Z,9.11
2023-04-20T03:40:08.987Z,9.14
2023-04-20T03:41:04.987Z,9.09
2023-04-20T03:42:00.580Z,8.98
2023-04-20T03:42:56.605Z,9.03
2023-04-20T03:43:52.651Z,9.08
2023-04-20T03:44:48.205Z,8.92
2023-04-20T03:45:44.290Z,8.95
2023-04-20T03:46:40.333Z,8.90
2023-04-20T03:47:35.939Z,8.98
2023-04-20T03:48:31.942Z,9.03
2023-04-20T03:49:27.523Z,9.11
2023-04-20T03:50:23.103Z,9.06
2023-04-20T03:51:18.657Z,9.01
2023-04-20T03:52:14.689Z,9.06
2023-04-20T03:53:10.721Z,9.04
2023-04-20T03:54:06.272Z,8.92
2023-04-20T03:55:02.851Z,8.96
2023-04-20T03:55:58.399Z,8.96
2023-04-20T03:56:53.943Z,8.95
2023-04-20T03:57:49.993Z,8.92
2023-04-20T03:58:45.541Z,8.85
2023-04-20T03:59:42.088Z,8.95
2023-04-20T04:00:37.655Z,8.95
2023-04-20T04:01:33.218Z,8.96
2023-04-20T04:02:28.868Z,8.96
2023-04-20T04:03:25.533Z,8.96
2023-04-20T04:04:21.691Z,8.98
2023-04-20T04:05:17.039Z,9.03
2023-04-20T04:06:12.477Z,8.98
2023-04-20T04:07:08.035Z,8.96
2023-04-20T04:08:03.615Z,9.06
2023-04-20T04:08:59.205Z,9.06
2023-04-20T04:09:54.756Z,9.04
2023-04-20T04:10:39.437Z,8.93
2023-04-20T04:11:34.994Z,8.98
2023-04-20T04:12:30.598Z,8.95
2023-04-20T04:13:26.129Z,8.92
2023-04-20T04:14:21.681Z,8.96
2023-04-20T04:15:18.254Z,9.01
2023-04-20T04:16:13.819Z,9.01
2023-04-20T04:17:10.447Z,8.92
2023-04-20T04:18:05.956Z,8.93
2023-04-20T04:19:02.589Z,9.08
2023-04-20T04:19:58.633Z,9.03
2023-04-20T04:20:54.214Z,8.95
2023-04-20T04:21:49.777Z,8.95
2023-04-20T04:22:45.786Z,8.96
2023-04-20T04:23:41.825Z,8.96
2023-04-20T04:24:37.405Z,8.99
2023-04-20T04:25:32.975Z,9.11
2023-04-20T04:26:28.548Z,8.92
2023-04-20T04:27:35.836Z,9.09
2023-04-20T04:28:31.408Z,9.06
2023-04-20T04:29:26.983Z,9.03
2023-04-20T04:30:22.565Z,8.90
2023-04-20T04:31:19.183Z,8.99
2023-04-20T04:32:14.724Z,8.99
2023-04-20T04:33:10.300Z,9.03
2023-04-20T04:34:05.829Z,9.01
2023-04-20T04:35:01.383Z,9.06
2023-04-20T04:35:57.590Z,9.06
2023-04-20T04:36:52.968Z,9.03
2023-04-20T04:37:48.532Z,9.08
2023-04-20T04:38:44.084Z,8.98
2023-04-20T04:39:39.712Z,9.01
2023-04-20T04:40:35.801Z,8.96
2023-04-20T04:41:32.840Z,9.08
2023-04-20T04:42:28.865Z,8.96
2023-04-20T04:43:25.919Z,8.95
2023-04-20T04:44:21.941Z,9.08
2023-04-20T04:45:17.994Z,8.96
2023-04-20T04:46:14.063Z,8.96
2023-04-20T04:47:10.063Z,9.11
2023-04-20T04:48:08.744Z,9.06
2023-04-20T04:49:02.160Z,9.06
2023-04-20T04:49:58.198Z,9.03
2023-04-20T04:51:05.535Z,9.09
2023-04-20T04:52:01.669Z,9.01
2023-04-20T04:52:57.790Z,9.11
2023-04-20T04:53:53.806Z,9.11
2023-04-20T04:54:49.887Z,9.09
2023-04-20T04:55:45.426Z,9.03
2023-04-20T04:56:41.006Z,9.01
2023-04-20T04:57:37.056Z,9.04
2023-04-20T04:58:32.630Z,8.95
2023-04-20T04:59:28.688Z,9.11
2023-04-20T05:00:24.834Z,9.09
2023-04-20T05:01:20.946Z,9.11
2023-04-20T05:02:17.077Z,9.08
2023-04-20T05:03:12.512Z,9.08
2023-04-20T05:04:08.208Z,9.08
2023-04-20T05:05:04.547Z,9.08
2023-04-20T05:06:00.180Z,9.04
2023-04-20T05:06:55.694Z,9.08
2023-04-20T05:07:51.224Z,9.15
2023-04-20T05:08:46.777Z,9.04
2023-04-20T05:09:42.824Z,9.11
2023-04-20T05:10:38.852Z,9.08
2023-04-20T05:11:34.431Z,8.99
2023-04-20T05:12:29.994Z,9.08
2023-04-20T05:13:26.001Z,9.12
2023-04-20T05:14:21.582Z,9.08
2023-04-20T05:15:17.141Z,9.09
2023-04-20T05:16:12.765Z,9.09
2023-04-20T05:17:08.259Z,9.14
2023-04-20T05:18:03.894Z,9.04
2023-04-20T05:18:59.372Z,9.08
2023-04-20T05:19:54.929Z,9.09
2023-04-20T05:20:50.565Z,9.11
2023-04-20T05:21:46.602Z,9.15
2023-04-20T05:22:42.774Z,9.09
2023-04-20T05:23:38.735Z,9.15
2023-04-20T05:24:34.763Z,9.04
2023-04-20T05:25:31.413Z,9.06
2023-04-20T05:26:27.217Z,9.08
2023-04-20T05:27:23.245Z,9.24
2023-04-20T05:28:18.805Z,9.22
2023-04-20T05:29:16.040Z,9.16
2023-04-20T05:30:20.583Z,9.22
2023-04-20T05:31:08.444Z,9.23
2023-04-20T05:32:04.516Z,9.16
2023-04-20T05:33:01.634Z,9.08
2023-04-20T05:34:06.649Z,9.08
2023-04-20T05:35:02.911Z,9.15
2023-04-20T05:35:59.147Z,9.09
2023-04-20T05:36:55.294Z,9.15
2023-04-20T05:37:54.871Z,9.15
2023-04-20T05:38:51.453Z,9.22
2023-04-20T05:39:47.539Z,9.27
2023-04-20T05:40:44.574Z,9.11
2023-04-20T05:41:41.657Z,9.27
2023-04-20T05:42:37.692Z,9.30
2023-04-20T05:43:33.737Z,9.24
2023-04-20T05:44:30.787Z,9.04
2023-04-20T05:45:26.860Z,9.09
2023-04-20T05:46:23.021Z,9.08
2023-04-20T05:47:20.177Z,9.08
2023-04-20T05:48:16.130Z,9.09
2023-04-20T05:49:13.168Z,9.19
2023-04-20T05:50:09.242Z,9.09
2023-04-20T05:51:05.301Z,9.27
2023-04-20T05:52:01.411Z,9.23
2023-04-20T05:52:57.465Z,9.26
2023-04-20T05:53:53.506Z,9.19
2023-04-20T05:54:50.565Z,9.27
2023-04-20T05:55:46.636Z,9.19
2023-04-20T05:56:42.679Z,9.22
2023-04-20T05:57:38.809Z,9.22
2023-04-20T05:58:35.869Z,9.24
2023-04-20T05:59:31.870Z,9.22
2023-04-20T06:00:30.018Z,9.29
2023-04-20T06:01:37.230Z,9.23
2023-04-20T06:02:33.812Z,9.24
2023-04-20T06:03:29.954Z,9.22
2023-04-20T06:04:26.313Z,9.15
2023-04-20T06:05:21.993Z,9.15
2023-04-20T06:06:17.986Z,9.22
2023-04-20T06:07:15.015Z,9.24
2023-04-20T06:08:11.114Z,9.22
2023-04-20T06:09:07.126Z,9.23
2023-04-20T06:10:03.169Z,9.19
2023-04-20T06:11:00.249Z,9.12
2023-04-20T06:11:56.292Z,9.12
2023-04-20T06:12:52.340Z,9.23
2023-04-20T06:13:48.340Z,9.19
2023-04-20T06:14:44.417Z,9.24
2023-04-20T06:15:41.613Z,9.24
2023-04-20T06:16:38.581Z,9.30
2023-04-20T06:17:35.587Z,9.24
2023-04-20T06:18:42.891Z,9.26
2023-04-20T06:19:38.974Z,9.27
2023-04-20T06:20:34.980Z,9.30
2023-04-20T06:21:32.055Z,9.30
2023-04-20T06:22:28.119Z,9.34
2023-04-20T06:23:24.143Z,9.29
2023-04-20T06:24:32.499Z,9.32
2023-04-20T06:25:29.538Z,9.15
2023-04-20T06:26:26.625Z,9.23
2023-04-20T06:27:22.655Z,9.24
2023-04-20T06:28:18.685Z,9.18
2023-04-20T06:29:15.995Z,9.14
2023-04-20T06:30:11.839Z,9.22
2023-04-20T06:31:08.894Z,9.24
2023-04-20T06:32:05.914Z,9.23
2023-04-20T06:33:02.020Z,9.27
2023-04-20T06:34:00.034Z,9.27
2023-04-20T06:34:56.083Z,9.29
2023-04-20T06:35:53.127Z,9.34
2023-04-20T06:36:49.201Z,9.19
2023-04-20T06:37:45.238Z,9.29
2023-04-20T06:38:41.313Z,9.27
2023-04-20T06:39:37.350Z,9.29
2023-04-20T06:40:33.370Z,9.27
2023-04-20T06:41:29.441Z,9.36
2023-04-20T06:42:26.483Z,9.33
2023-04-20T06:43:22.567Z,9.41
2023-04-20T06:44:18.594Z,9.42
2023-04-20T06:45:14.658Z,9.40
2023-04-20T06:46:10.719Z,9.40
2023-04-20T06:47:06.837Z,9.40
2023-04-20T06:48:02.957Z,9.37
2023-04-20T06:48:58.904Z,9.42
2023-04-20T06:49:54.951Z,9.45
2023-04-20T06:50:50.968Z,9.36
2023-04-20T06:51:48.183Z,9.42
2023-04-20T06:52:45.156Z,9.36
2023-04-20T06:53:41.195Z,9.37
2023-04-20T06:54:37.240Z,9.40
2023-04-20T06:55:33.278Z,9.42
2023-04-20T06:56:29.336Z,9.41
2023-04-20T06:57:25.393Z,9.42
2023-04-20T06:58:21.493Z,9.51
2023-04-20T06:59:18.746Z,9.50
2023-04-20T07:00:14.627Z,9.54
2023-04-20T07:01:11.708Z,9.55
2023-04-20T07:02:07.789Z,9.59
2023-04-20T07:03:04.829Z,9.60
2023-04-20T07:04:00.881Z,9.65
2023-04-20T07:04:56.833Z,9.62
2023-04-20T07:05:52.899Z,9.57
2023-04-20T07:06:49.654Z,9.62
2023-04-20T07:07:45.960Z,9.65
2023-04-20T07:08:42.000Z,9.60
2023-04-20T07:09:38.101Z,9.59
2023-04-20T07:10:34.280Z,9.66
2023-04-20T07:11:31.279Z,9.73
2023-04-20T07:12:27.308Z,9.62
2023-04-20T07:13:23.373Z,9.62
2023-04-20T07:14:19.424Z,9.67
2023-04-20T07:15:15.443Z,9.70
2023-04-20T07:16:11.534Z,9.75
2023-04-20T07:17:07.610Z,9.80
2023-04-20T07:18:03.736Z,9.84
2023-04-20T07:18:59.671Z,9.83
2023-04-20T07:19:56.810Z,9.85
2023-04-20T07:20:52.842Z,9.84
2023-04-20T07:21:48.908Z,9.85
2023-04-20T07:22:44.944Z,9.77
2023-04-20T07:23:42.720Z,9.93
2023-04-20T07:24:37.043Z,9.87
2023-04-20T07:25:33.181Z,9.84
2023-04-20T07:26:40.656Z,9.94
2023-04-20T07:27:36.563Z,9.91
2023-04-20T07:28:33.163Z,9.91
2023-04-20T07:29:29.245Z,9.99
2023-04-20T07:30:25.275Z,9.99
2023-04-20T07:31:21.437Z,9.98
2023-04-20T07:32:17.480Z,9.94
2023-04-20T07:33:13.467Z,9.93
2023-04-20T07:34:10.483Z,9.91
2023-04-20T07:35:06.548Z,9.96
2023-04-20T07:36:03.636Z,9.96
2023-04-20T07:36:59.651Z,9.93
2023-04-20T07:37:55.724Z,9.99
2023-04-20T07:38:51.782Z,9.99
2023-04-20T07:39:47.811Z,10.06
2023-04-20T07:40:43.925Z,10.02
2023-04-20T07:41:39.970Z,10.08
2023-04-20T07:42:36.079Z,10.08
2023-04-20T07:43:33.094Z,10.05
2023-04-20T07:44:29.154Z,10.06
2023-04-20T07:45:25.179Z,10.12
2023-04-20T07:46:21.358Z,10.16
2023-04-20T07:47:17.292Z,10.08
2023-04-20T07:48:13.582Z,10.06
2023-04-20T07:49:20.701Z,10.06
2023-04-20T07:50:16.662Z,10.05
2023-04-20T07:51:12.696Z,10.12
2023-04-20T07:52:16.526Z,10.16
2023-04-20T07:53:04.810Z,10.26
2023-04-20T07:54:01.878Z,10.26
2023-04-20T07:54:57.948Z,10.28
2023-04-20T07:55:53.960Z,10.28
2023-04-20T07:56:50.000Z,10.28
2023-04-20T07:57:46.298Z,10.27
2023-04-20T07:58:42.111Z,10.36
2023-04-20T07:59:38.166Z,10.30
2023-04-20T08:00:34.217Z,10.41
2023-04-20T08:01:30.274Z,10.34
2023-04-20T08:02:26.395Z,10.35
2023-04-20T08:03:22.588Z,10.36
2023-04-20T08:04:18.558Z,10.31
2023-04-20T08:05:25.845Z,10.36
2023-04-20T08:06:22.728Z,10.42
2023-04-20T08:07:18.789Z,10.45
2023-04-20T08:08:14.852Z,10.42
2023-04-20T08:09:13.123Z,10.43
2023-04-20T08:10:06.951Z,10.45
2023-04-20T08:11:03.023Z,10.39
2023-04-20T08:11:59.044Z,10.45
2023-04-20T08:12:55.093Z,10.52
2023-04-20T08:13:52.139Z,10.54
2023-04-20T08:14:48.170Z,10.49
2023-04-20T08:15:44.223Z,10.48
2023-04-20T08:16:40.453Z,10.57
2023-04-20T08:17:36.333Z,10.48
2023-04-20T08:18:32.383Z,10.55
2023-04-20T08:19:28.455Z,10.58
2023-04-20T08:20:24.485Z,10.54
2023-04-20T08:21:21.007Z,10.61
2023-04-20T08:22:16.560Z,10.73
2023-04-20T08:23:12.596Z,10.76
2023-04-20T08:24:08.625Z,10.76
2023-04-20T08:25:04.703Z,10.79
2023-04-20T08:26:01.736Z,10.83
2023-04-20T08:26:57.777Z,10.85
2023-04-20T08:27:53.836Z,10.90
2023-04-20T08:28:49.886Z,10.95
2023-04-20T08:29:45.960Z,11.01
2023-04-20T08:30:43.050Z,11.08
2023-04-20T08:31:39.101Z,11.09
2023-04-20T08:32:35.155Z,11.13
2023-04-20T08:33:31.159Z,11.13
2023-04-20T08:34:27.205Z,11.04
2023-04-20T08:35:25.467Z,11.08
2023-04-20T08:36:21.307Z,11.13
2023-04-20T08:37:17.406Z,11.19
2023-04-20T08:38:17.978Z,11.15
2023-04-20T08:39:09.436Z,11.12
2023-04-20T08:40:05.480Z,11.13
2023-04-20T08:41:24.068Z,11.08
2023-04-20T08:42:20.119Z,11.05
2023-04-20T08:43:16.153Z,11.08
2023-04-20T08:44:12.322Z,11.01
2023-04-20T08:45:08.270Z,11.00
2023-04-20T08:46:06.415Z,11.08
2023-04-20T08:47:02.598Z,11.11
2023-04-20T08:47:58.487Z,11.15
2023-04-20T08:48:54.497Z,11.16
2023-04-20T08:49:50.547Z,11.27
2023-04-20T08:50:47.629Z,11.23
2023-04-20T08:51:43.650Z,11.22
2023-04-20T08:52:39.755Z,11.27
2023-04-20T08:53:35.786Z,11.23
2023-04-20T08:54:32.586Z,11.15
2023-04-20T08:55:27.919Z,11.13
2023-04-20T08:56:25.963Z,11.15
2023-04-20T08:57:22.025Z,11.13
2023-04-20T08:58:19.107Z,11.18
2023-04-20T08:59:15.208Z,11.12
2023-04-20T09:00:13.891Z,11.04
2023-04-20T09:01:08.195Z,11.16
2023-04-20T09:02:04.328Z,11.12
2023-04-20T09:03:00.463Z,11.22
2023-04-20T09:03:56.472Z,11.18
2023-04-20T09:04:52.509Z,11.13
2023-04-20T09:05:48.485Z,11.23
2023-04-20T09:06:44.513Z,11.28
2023-04-20T09:07:40.602Z,11.27
2023-04-20T09:08:36.646Z,11.22
2023-04-20T09:09:43.952Z,11.23
2023-04-20T09:10:40.012Z,11.19
2023-04-20T09:11:36.059Z,11.20
2023-04-20T09:12:32.087Z,11.28
2023-04-20T09:13:28.138Z,11.16
2023-04-20T09:14:24.418Z,11.18
2023-04-20T09:15:21.275Z,11.12
2023-04-20T09:16:17.356Z,11.27
2023-04-20T09:17:13.346Z,11.12
2023-04-20T09:18:09.514Z,11.22
2023-04-20T09:19:06.844Z,11.19
2023-04-20T09:20:02.614Z,11.16
2023-04-20T09:20:58.687Z,11.22
2023-04-20T09:21:54.691Z,11.18
2023-04-20T09:22:50.728Z,11.27
2023-04-20T09:23:46.752Z,11.13
2023-04-20T09:24:42.813Z,11.19
2023-04-20T09:25:38.885Z,11.18
2023-04-20T09:26:34.905Z,11.11
2023-04-20T09:27:30.970Z,11.11
2023-04-20T09:28:27.008Z,11.08
2023-04-20T09:29:23.064Z,11.18
2023-04-20T09:30:19.142Z,11.19
2023-04-20T09:31:16.225Z,11.27
2023-04-20T09:32:12.362Z,11.30
2023-04-20T09:33:08.371Z,11.31
2023-04-20T09:34:04.338Z,11.36
2023-04-20T09:35:00.376Z,11.25
2023-04-20T09:35:57.279Z,11.23
2023-04-20T09:36:54.473Z,11.37
2023-04-20T09:37:50.344Z,11.31
2023-04-20T09:38:46.454Z,11.31
2023-04-20T09:39:42.491Z,11.30
2023-04-20T09:40:38.553Z,11.28
2023-04-20T09:41:34.607Z,11.30
2023-04-20T09:42:30.652Z,11.28
2023-04-20T09:43:26.710Z,11.23
2023-04-20T09:44:22.803Z,11.20
2023-04-20T09:45:18.845Z,11.34
2023-04-20T09:46:15.115Z,11.25
2023-04-20T09:47:11.050Z,11.31
2023-04-20T09:48:08.232Z,11.27
2023-04-20T09:49:04.247Z,11.23
2023-04-20T09:50:10.214Z,11.30
2023-04-20T09:50:56.326Z,11.34
2023-04-20T09:51:52.372Z,11.37
2023-04-20T09:52:48.429Z,11.37
2023-04-20T09:53:44.466Z,11.38
2023-04-20T09:54:40.534Z,11.34
2023-04-20T09:55:36.567Z,11.40
2023-04-20T09:56:32.634Z,11.48
2023-04-20T09:57:28.659Z,11.49
2023-04-20T09:58:24.737Z,11.61
2023-04-20T09:59:20.299Z,11.56
2023-04-20T10:00:16.413Z,11.62
2023-04-20T10:01:12.502Z,11.64
2023-04-20T10:02:08.687Z,11.66
2023-04-20T10:03:04.671Z,11.71
2023-04-20T10:04:00.817Z,11.73
2023-04-20T10:04:56.653Z,11.79
2023-04-20T10:05:53.596Z,11.91
2023-04-20T10:06:49.694Z,11.88
2023-04-20T10:07:45.762Z,11.84
2023-04-20T10:08:41.844Z,12.04
2023-04-20T10:09:37.865Z,12.04
2023-04-20T10:10:33.916Z,12.08
2023-04-20T10:11:37.050Z,12.13
2023-04-20T10:12:27.097Z,12.13
2023-04-20T10:13:23.099Z,12.18
2023-04-20T10:14:19.399Z,12.30
2023-04-20T10:15:15.184Z,12.36
2023-04-20T10:16:11.279Z,12.41
2023-04-20T10:17:07.587Z,12.46
2023-04-20T10:17:52.522Z,12.48
2023-04-20T10:18:48.683Z,12.54
2023-04-20T10:19:44.675Z,12.61
2023-04-20T10:20:40.715Z,12.54
2023-04-20T10:21:36.845Z,12.62
2023-04-20T10:22:34.029Z,12.69
2023-04-20T10:23:30.893Z,12.79
2023-04-20T10:24:26.929Z,12.69
2023-04-20T10:25:23.962Z,12.76
2023-04-20T10:26:20.006Z,12.61
2023-04-20T10:27:16.064Z,12.58
2023-04-20T10:28:12.158Z,12.59
2023-04-20T10:29:08.163Z,12.55
2023-04-20T10:30:04.216Z,12.59
2023-04-20T10:31:00.342Z,12.79
2023-04-20T10:31:56.289Z,12.73
2023-04-20T10:32:52.394Z,12.73
2023-04-20T10:33:48.408Z,12.59
2023-04-20T10:34:44.464Z,12.73
2023-04-20T10:35:40.495Z,12.77
2023-04-20T10:36:36.562Z,12.77
2023-04-20T10:37:32.586Z,12.90
2023-04-20T10:38:28.672Z,12.93
2023-04-20T10:39:25.018Z,13.08
2023-04-20T10:40:20.805Z,13.24
2023-04-20T10:41:16.868Z,13.30
2023-04-20T10:42:12.925Z,13.35
2023-04-20T10:43:08.966Z,13.39
2023-04-20T10:44:05.038Z,13.29
2023-04-20T10:45:01.189Z,13.30
2023-04-20T10:45:57.175Z,13.45
2023-04-20T10:46:53.192Z,13.43
2023-04-20T10:47:49.357Z,13.58
2023-04-20T10:48:46.349Z,13.71
2023-04-20T10:49:42.415Z,13.83
2023-04-20T10:50:38.460Z,13.91
2023-04-20T10:51:34.488Z,13.86
2023-04-20T10:52:30.537Z,14.00
2023-04-20T10:53:26.601Z,14.03
2023-04-20T10:54:24.688Z,13.97
2023-04-20T10:55:21.689Z,14.08
2023-04-20T10:56:17.796Z,14.05
2023-04-20T10:57:14.813Z,14.21
2023-04-20T10:58:10.866Z,14.11
2023-04-20T10:59:06.985Z,14.18
2023-04-20T11:00:03.008Z,14.08
2023-04-20T11:01:00.153Z,14.09
2023-04-20T11:01:56.258Z,14.05
2023-04-20T11:02:52.451Z,14.31
2023-04-20T11:03:48.387Z,14.21
2023-04-20T11:04:44.357Z,14.11
2023-04-20T11:05:40.437Z,14.11
2023-04-20T11:06:36.450Z,14.15
2023-04-20T11:07:32.492Z,14.15
2023-04-20T11:08:28.544Z,14.15
2023-04-20T11:09:25.598Z,14.21
2023-04-20T11:10:21.632Z,14.27
2023-04-20T11:11:17.639Z,14.36
2023-04-20T11:12:14.876Z,14.28
2023-04-20T11:13:10.821Z,14.31
2023-04-20T11:14:07.850Z,14.19
2023-04-20T11:15:03.937Z,14.22
2023-04-20T11:16:00.026Z,14.22
2023-04-20T11:16:56.067Z,14.27
2023-04-20T11:17:53.109Z,14.21
2023-04-20T11:18:49.087Z,14.11
2023-04-20T11:19:45.155Z,14.09
2023-04-20T11:20:42.197Z,14.13
2023-04-20T11:21:38.289Z,14.27
2023-04-20T11:22:34.414Z,14.30
2023-04-20T11:23:30.372Z,14.36
2023-04-20T11:24:26.456Z,14.41
2023-04-20T11:25:34.842Z,14.27
2023-04-20T11:26:32.858Z,14.21
2023-04-20T11:27:28.920Z,14.22
2023-04-20T11:28:24.990Z,14.33
2023-04-20T11:29:21.070Z,14.44
2023-04-20T11:30:18.199Z,14.31
2023-04-20T11:31:14.387Z,14.37
2023-04-20T11:32:11.432Z,14.34
2023-04-20T11:33:07.505Z,14.34
2023-04-20T11:34:05.911Z,14.36
2023-04-20T11:35:06.526Z,14.41
2023-04-20T11:35:55.547Z,14.33
2023-04-20T11:36:51.876Z,14.46
2023-04-20T11:37:48.702Z,14.41
2023-04-20T11:38:45.265Z,14.37
2023-04-20T11:39:41.299Z,14.34
2023-04-20T11:40:38.378Z,14.37
2023-04-20T11:41:34.465Z,14.33
2023-04-20T11:42:31.545Z,14.36
2023-04-20T11:43:27.584Z,14.31
2023-04-20T11:44:23.662Z,14.36
2023-04-20T11:45:20.546Z,14.30
2023-04-20T11:46:17.736Z,14.34
2023-04-20T11:47:13.668Z,14.28
2023-04-20T11:48:09.786Z,14.27
2023-04-20T11:49:06.781Z,14.30
2023-04-20T11:50:02.872Z,14.27
2023-04-20T11:50:58.900Z,14.21
2023-04-20T11:52:03.731Z,14.22
2023-04-20T11:52:59.710Z,14.33
2023-04-20T11:53:55.759Z,14.31
2023-04-20T11:54:51.826Z,14.26
2023-04-20T11:55:47.860Z,14.27
2023-04-20T11:56:43.968Z,14.22
2023-04-20T11:57:40.039Z,14.28
2023-04-20T11:58:36.129Z,14.33
2023-04-20T11:59:32.357Z,14.33
2023-04-20T12:00:28.216Z,14.36
2023-04-20T12:01:24.306Z,14.48
2023-04-20T12:02:19.941Z,14.48
2023-04-20T12:03:15.581Z,14.64
2023-04-20T12:04:11.742Z,14.70
2023-04-20T12:05:07.689Z,14.73
2023-04-20T12:06:03.811Z,14.66
2023-04-20T12:06:59.792Z,14.73
2023-04-20T12:07:44.322Z,14.77
2023-04-20T12:08:40.335Z,14.71
2023-04-20T12:09:36.385Z,14.74
2023-04-20T12:10:32.419Z,14.77
2023-04-20T12:11:28.474Z,14.89
2023-04-20T12:12:24.013Z,14.86
2023-04-20T12:13:19.601Z,14.83
2023-04-20T12:14:15.628Z,14.93
2023-04-20T12:15:12.204Z,15.05
2023-04-20T12:16:07.780Z,15.23
2023-04-20T12:17:03.344Z,15.44
2023-04-20T12:17:59.089Z,15.43
2023-04-20T12:18:54.486Z,15.58